createdAt,value
2017-09-19T00:00:49.342Z,14.63
2017-09-19T00:03:15.510Z,13.63
2017-09-19T00:05:42.430Z,10.70
2017-09-19T00:08:08.606Z,10.90
2017-09-19T00:10:34.795Z,18.00
2017-09-19T00:13:01.761Z,14.40
2017-09-19T00:15:28.668Z,12.43
2017-09-19T00:17:54.833Z,10.17
2017-09-19T00:20:21.772Z,13.13
2017-09-19T00:22:48.681Z,16.17
2017-09-19T00:25:14.843Z,12.00
2017-09-19T00:27:42.084Z,12.97
2017-09-19T00:30:09.736Z,12.57
2017-09-19T00:32:35.934Z,15.17
2017-09-19T00:35:02.100Z,12.07
2017-09-19T00:37:29.232Z,11.63
2017-09-19T00:39:55.412Z,13.63
2017-09-19T00:42:21.624Z,10.97
2017-09-19T00:44:48.538Z,13.10
2017-09-19T00:47:14.807Z,13.67
2017-09-19T00:49:40.993Z,12.10
2017-09-19T00:52:07.142Z,11.03
2017-09-19T00:54:34.064Z,13.30
2017-09-19T00:57:00.244Z,11.80
2017-09-19T00:59:26.443Z,11.73
2017-09-19T01:01:53.365Z,14.90
2017-09-19T01:04:19.551Z,29.47
2017-09-19T01:06:45.738Z,17.20
2017-09-19T01:09:11.907Z,12.10
2017-09-19T01:11:38.110Z,12.97
2017-09-19T01:14:05.027Z,15.13
2017-09-19T01:16:31.191Z,13.10
2017-09-19T01:18:57.372Z,16.13
2017-09-19T01:21:23.623Z,11.47
2017-09-19T01:23:50.555Z,22.10
2017-09-19T01:26:17.591Z,15.50
2017-09-19T01:28:43.753Z,13.53
2017-09-19T01:31:10.674Z,13.40
2017-09-19T01:33:36.913Z,16.40
2017-09-19T01:36:03.121Z,17.40
2017-09-19T01:38:29.323Z,15.23
2017-09-19T01:40:55.501Z,10.40
2017-09-19T01:43:21.684Z,12.93
2017-09-19T01:45:47.867Z,12.40
2017-09-19T01:48:14.848Z,11.57
2017-09-19T01:50:41.024Z,12.60
2017-09-19T01:53:07.175Z,13.63
2017-09-19T01:55:34.084Z,13.20
2017-09-19T01:58:00.239Z,13.10
2017-09-19T02:00:27.180Z,16.80
2017-09-19T02:02:54.082Z,12.73
2017-09-19T02:05:20.256Z,16.27
2017-09-19T02:07:47.192Z,10.83
2017-09-19T02:10:13.389Z,13.43
2017-09-19T02:12:39.566Z,11.03
2017-09-19T02:15:06.493Z,11.47
2017-09-19T02:17:32.638Z,14.77
2017-09-19T02:19:59.583Z,11.00
2017-09-19T02:22:27.487Z,11.60
2017-09-19T02:24:53.675Z,13.90
2017-09-19T02:27:20.613Z,9.93
2017-09-19T02:29:47.534Z,11.13
2017-09-19T02:32:13.949Z,13.77
2017-09-19T02:34:40.141Z,10.83
2017-09-19T02:37:06.299Z,11.43
2017-09-19T02:39:32.496Z,22.00
2017-09-19T02:41:58.691Z,24.73
2017-09-19T02:44:25.603Z,16.13
2017-09-19T02:46:51.799Z,15.63
2017-09-19T02:49:17.993Z,18.30
2017-09-19T02:51:44.141Z,14.17
2017-09-19T02:54:11.057Z,24.17
2017-09-19T02:56:37.220Z,18.17
2017-09-19T02:59:03.417Z,12.90
2017-09-19T03:01:29.587Z,14.73
2017-09-19T03:03:55.789Z,15.23
2017-09-19T03:06:22.738Z,17.10
2017-09-19T03:08:49.677Z,18.03
2017-09-19T03:11:17.566Z,15.50
2017-09-19T03:13:43.800Z,18.93
2017-09-19T03:16:09.982Z,15.90
2017-09-19T03:18:37.635Z,14.00
2017-09-19T03:21:03.872Z,17.97
2017-09-19T03:23:30.053Z,16.40
2017-09-19T03:25:56.234Z,13.33
2017-09-19T03:28:22.397Z,13.90
2017-09-19T03:30:48.573Z,12.37
2017-09-19T03:33:14.764Z,16.10
2017-09-19T03:35:40.972Z,16.20
2017-09-19T03:38:07.142Z,18.13
2017-09-19T03:40:33.310Z,16.93
2017-09-19T03:42:59.486Z,21.17
2017-09-19T03:45:25.673Z,17.90
2017-09-19T03:47:52.586Z,17.23
2017-09-19T03:50:18.762Z,16.60
2017-09-19T03:52:44.918Z,16.80
2017-09-19T03:55:11.095Z,13.37
2017-09-19T03:57:38.027Z,18.83
2017-09-19T04:00:04.202Z,15.70
2017-09-19T04:02:30.419Z,14.13
2017-09-19T04:04:56.592Z,13.67
2017-09-19T04:07:22.747Z,17.87
2017-09-19T04:09:48.961Z,16.60
2017-09-19T04:12:15.099Z,12.13
2017-09-19T04:14:42.940Z,14.93
2017-09-19T04:17:09.128Z,13.50
2017-09-19T04:19:35.305Z,11.17
2017-09-19T04:22:01.487Z,13.10
2017-09-19T04:24:27.664Z,14.93
2017-09-19T04:26:53.847Z,12.80
2017-09-19T04:29:20.066Z,14.37
2017-09-19T04:31:46.276Z,13.90
2017-09-19T04:34:13.187Z,15.13
2017-09-19T04:36:39.371Z,11.13
2017-09-19T04:39:05.591Z,12.87
2017-09-19T04:41:32.506Z,11.73
2017-09-19T04:43:58.729Z,12.90
2017-09-19T04:46:24.912Z,13.70
2017-09-19T04:48:51.116Z,10.60
2017-09-19T04:51:17.314Z,13.43
2017-09-19T04:53:43.508Z,14.40
2017-09-19T04:56:09.716Z,12.10
2017-09-19T04:58:35.911Z,13.80
2017-09-19T05:01:02.928Z,10.77
2017-09-19T05:03:29.103Z,12.83
2017-09-19T05:05:56.034Z,10.77
2017-09-19T05:08:22.984Z,15.60
2017-09-19T05:10:49.909Z,11.50
2017-09-19T05:13:16.095Z,10.13
2017-09-19T05:15:42.329Z,10.60
2017-09-19T05:18:08.489Z,13.70
2017-09-19T05:20:34.668Z,9.30
2017-09-19T05:23:00.875Z,9.07
2017-09-19T05:25:27.818Z,9.90
2017-09-19T05:27:54.759Z,10.00
2017-09-19T05:30:21.711Z,10.30
2017-09-19T05:32:48.648Z,11.00
2017-09-19T05:35:15.596Z,14.30
2017-09-19T05:37:42.521Z,9.83
2017-09-19T05:40:08.716Z,8.40
2017-09-19T05:42:34.874Z,11.73
2017-09-19T05:45:01.038Z,12.30
2017-09-19T05:47:27.206Z,10.00
2017-09-19T05:49:53.398Z,10.07
2017-09-19T05:52:19.567Z,11.73
2017-09-19T05:54:45.761Z,13.90
2017-09-19T05:57:11.938Z,12.60
2017-09-19T05:59:38.200Z,13.10
2017-09-19T06:02:04.392Z,10.33
2017-09-19T06:04:30.594Z,9.67
2017-09-19T06:06:56.790Z,8.57
2017-09-19T06:09:31.088Z,9.13
2017-09-19T06:11:58.060Z,9.07
2017-09-19T06:14:24.258Z,10.00
2017-09-19T06:16:50.508Z,11.73
2017-09-19T06:19:17.479Z,11.67
2017-09-19T06:21:43.681Z,11.87
2017-09-19T06:24:10.602Z,9.73
2017-09-19T06:26:36.800Z,9.70
2017-09-19T06:29:03.013Z,9.70
2017-09-19T06:31:29.220Z,7.53
2017-09-19T06:33:55.404Z,10.17
2017-09-19T06:36:21.594Z,9.40
2017-09-19T06:38:47.779Z,8.03
2017-09-19T06:41:14.686Z,6.57
2017-09-19T06:43:40.879Z,7.23
2017-09-19T06:46:07.050Z,6.77
2017-09-19T06:48:33.206Z,7.90
2017-09-19T06:50:59.393Z,8.20
2017-09-19T06:53:25.603Z,8.17
2017-09-19T06:55:51.766Z,9.80
2017-09-19T06:58:17.943Z,6.80
2017-09-19T07:00:51.284Z,6.77
2017-09-19T07:03:17.476Z,7.20
2017-09-19T07:05:43.691Z,8.50
2017-09-19T07:08:09.852Z,6.53
2017-09-19T07:10:36.033Z,6.93
2017-09-19T07:13:03.002Z,6.70
2017-09-19T07:15:29.566Z,6.93
2017-09-19T07:17:55.806Z,6.10
2017-09-19T07:20:22.028Z,6.57
2017-09-19T07:22:48.255Z,6.30
2017-09-19T07:25:14.541Z,7.37
2017-09-19T07:27:41.585Z,7.03
2017-09-19T07:30:07.849Z,7.37
2017-09-19T07:32:34.162Z,6.20
2017-09-19T07:35:00.483Z,7.60
2017-09-19T07:37:26.722Z,9.37
2017-09-19T07:39:52.959Z,8.40
2017-09-19T07:42:19.314Z,8.73
2017-09-19T07:44:45.573Z,7.97
2017-09-19T07:47:12.557Z,6.07
2017-09-19T07:49:38.785Z,9.73
2017-09-19T07:52:04.999Z,8.23
2017-09-19T07:54:31.946Z,8.20
2017-09-19T07:56:58.860Z,7.10
2017-09-19T07:59:25.107Z,6.30
2017-09-19T08:01:52.063Z,8.83
2017-09-19T08:04:19.672Z,9.97
2017-09-19T08:06:45.836Z,8.00
2017-09-19T08:09:12.066Z,7.70
2017-09-19T08:11:39.054Z,11.77
2017-09-19T08:14:05.374Z,7.87
2017-09-19T08:16:31.728Z,6.20
2017-09-19T08:18:57.942Z,7.17
2017-09-19T08:21:24.783Z,7.47
2017-09-19T08:23:51.006Z,7.90
2017-09-19T08:26:17.198Z,10.20
2017-09-19T08:28:43.404Z,7.73
2017-09-19T08:31:10.167Z,11.10
2017-09-19T08:33:36.336Z,9.07
2017-09-19T08:36:02.496Z,9.50
2017-09-19T08:38:28.758Z,7.80
2017-09-19T08:40:55.703Z,7.90
2017-09-19T08:43:22.604Z,12.93
2017-09-19T08:45:48.836Z,11.20
2017-09-19T08:48:15.007Z,6.40
2017-09-19T08:50:41.944Z,11.37
2017-09-19T08:53:08.133Z,10.00
2017-09-19T08:55:34.303Z,9.57
2017-09-19T08:58:00.530Z,9.20
2017-09-19T09:00:26.783Z,8.07
2017-09-19T09:02:53.724Z,18.27
2017-09-19T09:05:20.626Z,9.77
2017-09-19T09:07:46.807Z,7.30
2017-09-19T09:10:12.947Z,14.93
2017-09-19T09:12:39.141Z,9.07
2017-09-19T09:15:06.071Z,7.63
2017-09-19T09:17:32.244Z,10.23
2017-09-19T09:19:58.431Z,16.40
2017-09-19T09:22:25.344Z,10.20
2017-09-19T09:24:51.499Z,8.30
2017-09-19T09:27:17.679Z,9.23
2017-09-19T09:29:43.879Z,13.40
2017-09-19T09:32:10.872Z,10.20
2017-09-19T09:34:37.085Z,12.13
2017-09-19T09:37:03.311Z,12.00
2017-09-19T09:39:29.563Z,8.27
2017-09-19T09:41:55.746Z,8.37
2017-09-19T09:44:21.986Z,13.10
2017-09-19T09:46:48.146Z,10.83
2017-09-19T09:49:14.300Z,11.53
2017-09-19T09:51:40.488Z,9.77
2017-09-19T09:54:06.685Z,6.93
2017-09-19T09:56:32.912Z,19.63
2017-09-19T09:58:59.844Z,6.60
2017-09-19T10:01:26.776Z,8.23
2017-09-19T10:03:53.709Z,6.63
2017-09-19T10:06:20.015Z,8.70
2017-09-19T10:08:47.087Z,9.27
2017-09-19T10:11:13.247Z,8.30
2017-09-19T10:13:40.177Z,8.70
2017-09-19T10:16:06.404Z,5.87
2017-09-19T10:18:34.065Z,6.30
2017-09-19T10:21:01.757Z,10.03
2017-09-19T10:23:27.920Z,5.87
2017-09-19T10:25:54.066Z,5.67
2017-09-19T10:28:20.797Z,5.33
2017-09-19T10:30:46.951Z,6.33
2017-09-19T10:33:13.839Z,5.03
2017-09-19T10:35:40.000Z,8.87
2017-09-19T10:38:06.161Z,6.07
2017-09-19T10:40:33.063Z,7.63
2017-09-19T10:42:59.291Z,5.40
2017-09-19T10:45:25.447Z,10.57
2017-09-19T10:47:52.388Z,7.10
2017-09-19T10:50:25.707Z,10.10
2017-09-19T10:52:52.667Z,4.27
2017-09-19T10:55:18.835Z,4.70
2017-09-19T10:57:45.047Z,3.57
2017-09-19T11:00:11.228Z,8.53
2017-09-19T11:02:38.111Z,4.23
2017-09-19T11:05:04.281Z,5.63
2017-09-19T11:07:30.480Z,5.57
2017-09-19T11:09:56.627Z,3.23
2017-09-19T11:12:22.791Z,3.20
2017-09-19T11:14:49.717Z,3.80
2017-09-19T11:17:15.881Z,4.20
2017-09-19T11:19:42.076Z,3.10
2017-09-19T11:22:08.974Z,3.17
2017-09-19T11:24:35.142Z,4.17
2017-09-19T11:27:02.816Z,4.83
2017-09-19T11:29:30.530Z,2.37
2017-09-19T11:31:56.712Z,1.93
2017-09-19T11:34:23.628Z,1.93
2017-09-19T11:36:49.798Z,2.80
2017-09-19T11:39:15.994Z,3.10
2017-09-19T11:41:42.940Z,4.40
2017-09-19T11:44:09.145Z,2.87
2017-09-19T11:46:36.270Z,2.60
2017-09-19T11:49:03.250Z,5.77
2017-09-19T11:51:29.535Z,3.47
2017-09-19T11:53:55.733Z,3.70
2017-09-19T11:56:22.709Z,2.17
2017-09-19T11:58:48.933Z,3.90
2017-09-19T12:01:15.139Z,2.00
2017-09-19T12:03:42.090Z,1.90
2017-09-19T12:06:09.051Z,2.20
2017-09-19T12:08:35.257Z,3.77
2017-09-19T12:11:01.527Z,2.63
2017-09-19T12:13:27.680Z,1.80
2017-09-19T12:15:53.843Z,2.40
2017-09-19T12:18:20.006Z,5.23
2017-09-19T12:20:46.180Z,1.83
2017-09-19T12:23:12.344Z,14.60
2017-09-19T12:25:38.539Z,5.63
2017-09-19T12:28:04.712Z,3.90
2017-09-19T12:30:30.908Z,3.00
2017-09-19T12:32:57.822Z,5.83
2017-09-19T12:35:23.984Z,51.53
2017-09-19T12:37:50.918Z,25.47
2017-09-19T12:40:17.108Z,3.60
2017-09-19T12:42:43.272Z,65.07
2017-09-19T12:45:09.434Z,17.23
2017-09-19T12:47:35.618Z,10.50
2017-09-19T12:50:01.790Z,3.90
2017-09-19T12:52:27.975Z,3.90
2017-09-19T12:54:54.158Z,2.70
2017-09-19T12:57:20.346Z,3.03
2017-09-19T12:59:47.259Z,8.23
2017-09-19T13:02:13.430Z,2.77
2017-09-19T13:04:40.361Z,2.37
2017-09-19T13:07:06.547Z,2.40
2017-09-19T13:09:32.743Z,2.10
2017-09-19T13:11:58.899Z,2.57
2017-09-19T13:14:25.095Z,2.20
2017-09-19T13:16:51.284Z,1.93
2017-09-19T13:19:17.468Z,1.97
2017-09-19T13:21:43.731Z,1.40
2017-09-19T13:24:09.887Z,3.57
2017-09-19T13:26:36.811Z,2.03
2017-09-19T13:29:02.987Z,1.50
2017-09-19T13:31:42.373Z,1.30
2017-09-19T13:34:08.561Z,8.50
2017-09-19T13:36:34.743Z,8.10
2017-09-19T13:39:00.917Z,2.00
2017-09-19T13:41:27.105Z,1.70
2017-09-19T13:43:53.356Z,2.90
2017-09-19T13:46:20.313Z,2.10
2017-09-19T13:48:46.491Z,1.80
2017-09-19T13:51:12.834Z,1.93
2017-09-19T13:53:39.037Z,2.57
2017-09-19T13:56:05.237Z,1.60
2017-09-19T13:58:31.498Z,1.63
2017-09-19T14:00:57.683Z,1.47
2017-09-19T14:03:23.874Z,2.27
2017-09-19T14:05:50.076Z,7.10
2017-09-19T14:08:16.368Z,1.57
2017-09-19T14:10:42.563Z,3.50
2017-09-19T14:13:08.770Z,3.33
2017-09-19T14:15:34.980Z,1.57
2017-09-19T14:18:01.184Z,1.40
2017-09-19T14:20:27.371Z,1.43
2017-09-19T14:22:53.564Z,1.57
2017-09-19T14:25:19.758Z,1.50
2017-09-19T14:27:45.952Z,3.20
2017-09-19T14:30:12.122Z,1.50
2017-09-19T14:32:38.278Z,1.10
2017-09-19T14:35:04.475Z,2.50
2017-09-19T14:37:30.648Z,3.40
2017-09-19T14:39:56.842Z,2.50
2017-09-19T14:42:23.048Z,2.30
2017-09-19T14:44:49.971Z,1.70
2017-09-19T14:47:16.164Z,1.67
2017-09-19T14:49:42.368Z,1.53
2017-09-19T14:52:08.525Z,1.60
2017-09-19T14:54:34.712Z,3.70
2017-09-19T14:57:00.912Z,5.53
2017-09-19T14:59:27.078Z,2.53
2017-09-19T15:01:53.370Z,1.40
2017-09-19T15:04:20.360Z,2.03
2017-09-19T15:06:46.572Z,2.10
2017-09-19T15:09:12.848Z,2.73
2017-09-19T15:11:39.084Z,2.97
2017-09-19T15:14:05.315Z,1.83
2017-09-19T15:16:31.515Z,1.70
2017-09-19T15:18:57.742Z,1.60
2017-09-19T15:21:23.978Z,2.87
2017-09-19T15:23:50.210Z,1.30
2017-09-19T15:26:16.425Z,1.47
2017-09-19T15:28:42.588Z,4.40
2017-09-19T15:31:08.764Z,5.50
2017-09-19T15:33:34.963Z,1.73
2017-09-19T15:36:01.154Z,2.03
2017-09-19T15:38:27.416Z,1.40
2017-09-19T15:40:53.711Z,5.77
2017-09-19T15:43:19.962Z,1.20
2017-09-19T15:45:46.159Z,2.60
2017-09-19T15:48:12.382Z,1.10
2017-09-19T15:50:38.592Z,1.67
2017-09-19T15:53:04.800Z,0.97
2017-09-19T15:55:31.747Z,1.10
2017-09-19T15:57:58.766Z,3.37
2017-09-19T16:00:24.955Z,1.10
2017-09-19T16:02:51.152Z,1.17
2017-09-19T16:05:17.353Z,2.43
2017-09-19T16:07:43.689Z,1.30
2017-09-19T16:10:16.944Z,2.50
2017-09-19T16:12:43.139Z,1.90
2017-09-19T16:15:10.109Z,1.23
2017-09-19T16:17:36.314Z,1.30
2017-09-19T16:20:03.241Z,1.70
2017-09-19T16:22:29.472Z,1.67
2017-09-19T16:24:55.889Z,4.10
2017-09-19T16:27:22.039Z,3.43
2017-09-19T16:29:48.265Z,2.80
2017-09-19T16:32:15.169Z,2.80
2017-09-19T16:34:41.377Z,8.40
2017-09-19T16:37:07.587Z,7.03
2017-09-19T16:39:33.823Z,4.00
2017-09-19T16:42:00.004Z,4.10
2017-09-19T16:44:26.548Z,4.50
2017-09-19T16:46:52.811Z,3.13
2017-09-19T16:49:19.009Z,2.03
2017-09-19T16:51:45.271Z,2.33
2017-09-19T16:54:12.192Z,3.10
2017-09-19T16:56:39.147Z,5.90
2017-09-19T16:59:06.068Z,6.50
2017-09-19T17:01:33.727Z,8.67
2017-09-19T17:03:59.947Z,5.63
2017-09-19T17:06:26.185Z,9.33
2017-09-19T17:08:52.360Z,13.07
2017-09-19T17:11:18.570Z,5.73
2017-09-19T17:13:45.536Z,5.60
2017-09-19T17:16:11.713Z,4.37
2017-09-19T17:18:37.938Z,7.27
2017-09-19T17:21:04.162Z,5.30
2017-09-19T17:23:30.341Z,2.60
2017-09-19T17:25:56.558Z,9.30
2017-09-19T17:28:22.946Z,4.43
2017-09-19T17:30:49.157Z,4.03
2017-09-19T17:33:15.335Z,7.17
2017-09-19T17:35:42.316Z,7.07
2017-09-19T17:38:08.546Z,5.93
2017-09-19T17:40:34.774Z,4.03
2017-09-19T17:43:00.986Z,15.00
2017-09-19T17:45:27.175Z,6.43
2017-09-19T17:47:53.331Z,4.27
2017-09-19T17:50:19.526Z,6.43
2017-09-19T17:52:45.691Z,10.10
2017-09-19T17:55:12.703Z,8.40
2017-09-19T17:57:38.948Z,5.13
2017-09-19T18:00:05.167Z,9.30
2017-09-19T18:02:31.983Z,5.77
2017-09-19T18:04:58.215Z,9.00
2017-09-19T18:07:24.405Z,6.57
2017-09-19T18:09:50.573Z,6.37
2017-09-19T18:12:16.789Z,6.30
2017-09-19T18:14:42.994Z,7.30
2017-09-19T18:17:09.206Z,7.93
2017-09-19T18:19:36.168Z,3.87
2017-09-19T18:22:02.380Z,5.27
2017-09-19T18:24:29.341Z,8.03
2017-09-19T18:26:55.552Z,6.73
2017-09-19T18:29:22.609Z,11.87
2017-09-19T18:31:48.979Z,7.97
2017-09-19T18:34:15.164Z,7.80
2017-09-19T18:36:42.142Z,6.90
2017-09-19T18:39:08.407Z,11.97
2017-09-19T18:41:34.689Z,5.90
2017-09-19T18:44:00.956Z,5.03
2017-09-19T18:46:27.211Z,11.00
2017-09-19T18:48:54.981Z,8.53
2017-09-19T18:51:21.964Z,3.67
2017-09-19T18:53:48.143Z,3.07
2017-09-19T18:56:14.417Z,4.90
2017-09-19T18:58:40.651Z,4.70
2017-09-19T19:01:06.883Z,3.30
2017-09-19T19:03:33.720Z,3.50
2017-09-19T19:06:00.069Z,5.10
2017-09-19T19:08:26.247Z,7.80
2017-09-19T19:10:53.170Z,3.80
2017-09-19T19:13:19.387Z,6.97
2017-09-19T19:15:45.543Z,4.90
2017-09-19T19:18:11.726Z,8.97
2017-09-19T19:20:37.938Z,5.93
2017-09-19T19:23:04.152Z,6.40
2017-09-19T19:25:30.357Z,9.70
2017-09-19T19:27:56.595Z,7.20
2017-09-19T19:30:23.650Z,7.07
2017-09-19T19:32:49.877Z,8.40
2017-09-19T19:35:16.289Z,8.57
2017-09-19T19:37:42.495Z,7.60
2017-09-19T19:40:08.665Z,8.27
2017-09-19T19:42:35.576Z,7.77
2017-09-19T19:45:01.782Z,7.93
2017-09-19T19:47:27.980Z,6.03
2017-09-19T19:49:54.178Z,9.73
2017-09-19T19:52:21.843Z,8.27
2017-09-19T19:54:48.050Z,7.23
2017-09-19T19:57:14.251Z,10.00
2017-09-19T19:59:40.454Z,8.53
2017-09-19T20:02:06.714Z,8.43
2017-09-19T20:04:32.906Z,9.70
2017-09-19T20:06:59.133Z,9.00
2017-09-19T20:09:25.341Z,9.63
2017-09-19T20:11:51.529Z,7.50
2017-09-19T20:14:17.878Z,9.50
2017-09-19T20:16:44.054Z,7.60
2017-09-19T20:19:10.239Z,14.10
2017-09-19T20:21:36.592Z,6.97
2017-09-19T20:24:02.870Z,7.43
2017-09-19T20:26:29.313Z,8.60
2017-09-19T20:28:55.538Z,7.73
2017-09-19T20:31:21.840Z,12.53
2017-09-19T20:33:48.064Z,8.80
2017-09-19T20:36:14.255Z,9.50
2017-09-19T20:38:40.495Z,11.70
2017-09-19T20:41:06.766Z,8.47
2017-09-19T20:43:32.953Z,10.50
2017-09-19T20:45:59.226Z,12.40
2017-09-19T20:48:25.415Z,8.47
2017-09-19T20:50:51.599Z,7.27
2017-09-19T20:53:17.855Z,7.67
2017-09-19T20:55:44.058Z,11.20
2017-09-19T20:58:10.293Z,9.00
2017-09-19T21:00:36.446Z,9.67
2017-09-19T21:03:02.783Z,11.43
2017-09-19T21:05:35.830Z,11.20
2017-09-19T21:08:08.301Z,13.37
2017-09-19T21:10:40.718Z,7.97
2017-09-19T21:13:13.256Z,7.10
2017-09-19T21:15:45.708Z,13.67
2017-09-19T21:18:18.140Z,12.03
2017-09-19T21:20:44.377Z,8.60
2017-09-19T21:23:10.651Z,12.80
2017-09-19T21:25:36.921Z,9.90
2017-09-19T21:28:03.205Z,8.43
2017-09-19T21:30:29.387Z,10.70
2017-09-19T21:32:55.591Z,10.00
2017-09-19T21:35:22.403Z,11.80
2017-09-19T21:37:48.620Z,11.97
2017-09-19T21:40:14.801Z,10.33
2017-09-19T21:42:41.261Z,9.43
2017-09-19T21:45:08.256Z,8.97
2017-09-19T21:47:35.527Z,9.73
2017-09-19T21:50:01.756Z,12.17
2017-09-19T21:52:27.980Z,14.23
2017-09-19T21:55:01.127Z,17.03
2017-09-19T21:57:27.342Z,9.23
2017-09-19T21:59:54.237Z,9.87
2017-09-19T22:02:20.415Z,10.70
2017-09-19T22:04:47.355Z,9.57
2017-09-19T22:07:13.567Z,8.67
2017-09-19T22:09:39.759Z,11.07
2017-09-19T22:12:05.938Z,13.93
2017-09-19T22:14:32.867Z,10.67
2017-09-19T22:16:59.059Z,10.37
2017-09-19T22:19:25.255Z,12.17
2017-09-19T22:21:51.457Z,12.87
2017-09-19T22:24:17.633Z,10.57
2017-09-19T22:26:43.815Z,13.10
2017-09-19T22:29:09.975Z,9.77
2017-09-19T22:31:36.167Z,11.90
2017-09-19T22:34:02.353Z,13.27
2017-09-19T22:36:28.563Z,12.60
2017-09-19T22:38:54.767Z,12.23
2017-09-19T22:41:21.734Z,11.90
2017-09-19T22:43:47.940Z,13.73
2017-09-19T22:46:14.864Z,9.93
2017-09-19T22:48:41.095Z,10.87
2017-09-19T22:51:07.284Z,11.43
2017-09-19T22:53:33.472Z,11.67
2017-09-19T22:56:00.409Z,14.60
2017-09-19T22:58:26.580Z,13.53
2017-09-19T23:00:52.804Z,15.80
2017-09-19T23:03:19.008Z,12.57
2017-09-19T23:05:45.946Z,13.77
2017-09-19T23:08:12.910Z,11.63
2017-09-19T23:10:39.106Z,11.40
2017-09-19T23:13:05.268Z,12.47
2017-09-19T23:15:31.482Z,13.67
2017-09-19T23:17:58.538Z,15.67
2017-09-19T23:20:24.749Z,13.63
2017-09-19T23:22:51.688Z,12.97
2017-09-19T23:25:17.934Z,11.23
2017-09-19T23:27:44.903Z,13.23
2017-09-19T23:30:11.123Z,14.93
2017-09-19T23:32:37.342Z,19.73
2017-09-19T23:35:04.273Z,12.37
2017-09-19T23:37:31.253Z,10.53
2017-09-19T23:39:57.424Z,14.97
2017-09-19T23:42:23.587Z,14.27
2017-09-19T23:44:50.512Z,14.67
2017-09-19T23:47:17.424Z,12.63
2017-09-19T23:49:43.604Z,11.67
2017-09-19T23:52:10.520Z,16.03
2017-09-19T23:54:36.690Z,14.97
2017-09-19T23:57:02.896Z,11.30
2017-09-19T23:59:29.787Z,14.30
